createdAt,value
2018-09-25T00:00:28.822Z,0.00
2018-09-25T00:01:28.743Z,0.00
2018-09-25T00:02:28.661Z,0.00
2018-09-25T00:03:28.577Z,0.00
2018-09-25T00:04:28.498Z,0.00
2018-09-25T00:05:28.415Z,0.00
2018-09-25T00:06:28.337Z,0.00
2018-09-25T00:07:28.252Z,0.00
2018-09-25T00:08:28.174Z,0.00
2018-09-25T00:09:28.094Z,0.00
2018-09-25T00:10:28.050Z,0.00
2018-09-25T00:11:27.932Z,0.00
2018-09-25T00:12:27.848Z,0.00
2018-09-25T00:13:27.783Z,0.00
2018-09-25T00:14:27.684Z,0.00
2018-09-25T00:15:27.605Z,0.00
2018-09-25T00:16:27.521Z,0.00
2018-09-25T00:17:27.440Z,0.00
2018-09-25T00:18:27.359Z,0.00
2018-09-25T00:19:27.276Z,0.00
2018-09-25T00:20:27.196Z,0.00
2018-09-25T00:21:27.121Z,0.00
2018-09-25T00:22:27.039Z,0.00
2018-09-25T00:23:26.954Z,0.00
2018-09-25T00:24:26.870Z,0.00
2018-09-25T00:25:26.789Z,0.00
2018-09-25T00:26:26.707Z,0.00
2018-09-25T00:27:26.625Z,0.00
2018-09-25T00:28:26.545Z,0.00
2018-09-25T00:29:26.466Z,0.00
2018-09-25T00:30:26.386Z,0.00
2018-09-25T00:31:26.300Z,0.00
2018-09-25T00:32:26.219Z,0.00
2018-09-25T00:33:26.138Z,0.00
2018-09-25T00:34:26.057Z,0.00
2018-09-25T00:35:25.976Z,0.00
2018-09-25T00:36:25.905Z,0.00
2018-09-25T00:37:25.812Z,0.00
2018-09-25T00:38:25.731Z,0.00
2018-09-25T00:39:25.647Z,0.00
2018-09-25T00:40:25.569Z,0.00
2018-09-25T00:41:25.487Z,0.00
2018-09-25T00:42:25.405Z,0.00
2018-09-25T00:43:25.327Z,0.00
2018-09-25T00:44:25.242Z,0.00
2018-09-25T00:45:25.163Z,0.00
2018-09-25T00:46:25.079Z,0.00
2018-09-25T00:47:24.997Z,0.00
2018-09-25T00:48:24.919Z,0.00
2018-09-25T00:49:24.840Z,0.00
2018-09-25T00:50:24.762Z,0.00
2018-09-25T00:51:24.673Z,0.00
2018-09-25T00:52:24.595Z,0.00
2018-09-25T00:53:24.508Z,0.00
2018-09-25T00:54:24.429Z,0.00
2018-09-25T00:55:24.348Z,0.00
2018-09-25T00:56:24.264Z,0.00
2018-09-25T00:57:24.185Z,0.00
2018-09-25T00:58:24.110Z,0.00
2018-09-25T00:59:24.020Z,0.00
2018-09-25T01:00:23.940Z,0.00
2018-09-25T01:01:23.857Z,0.00
2018-09-25T01:02:23.774Z,0.00
2018-09-25T01:03:23.697Z,0.00
2018-09-25T01:04:23.613Z,0.00
2018-09-25T01:05:23.533Z,0.00
2018-09-25T01:06:23.451Z,0.00
2018-09-25T01:07:23.367Z,0.00
2018-09-25T01:08:23.287Z,0.00
2018-09-25T01:09:23.204Z,0.00
2018-09-25T01:10:23.129Z,0.00
2018-09-25T01:11:25.848Z,0.00
2018-09-25T01:12:22.969Z,0.00
2018-09-25T01:13:22.878Z,0.00
2018-09-25T01:14:22.800Z,0.00
2018-09-25T01:15:22.716Z,0.00
2018-09-25T01:16:22.632Z,0.00
2018-09-25T01:17:22.557Z,0.00
2018-09-25T01:18:22.472Z,0.00
2018-09-25T01:19:22.390Z,0.00
2018-09-25T01:20:22.306Z,0.00
2018-09-25T01:21:22.227Z,0.00
2018-09-25T01:22:22.146Z,0.00
2018-09-25T01:23:22.065Z,0.00
2018-09-25T01:24:21.982Z,0.00
2018-09-25T01:25:21.901Z,0.00
2018-09-25T01:26:21.822Z,0.00
2018-09-25T01:27:21.736Z,0.00
2018-09-25T01:28:21.655Z,0.00
2018-09-25T01:29:21.573Z,0.00
2018-09-25T01:30:21.494Z,0.00
2018-09-25T01:31:21.409Z,0.00
2018-09-25T01:32:21.336Z,0.00
2018-09-25T01:33:21.253Z,0.00
2018-09-25T01:34:21.166Z,0.00
2018-09-25T01:35:21.084Z,0.00
2018-09-25T01:36:21.003Z,0.00
2018-09-25T01:37:20.924Z,0.00
2018-09-25T01:38:20.841Z,0.00
2018-09-25T01:39:20.762Z,0.00
2018-09-25T01:40:20.678Z,0.00
2018-09-25T01:41:20.599Z,0.00
2018-09-25T01:42:20.513Z,0.00
2018-09-25T01:43:20.438Z,0.00
2018-09-25T01:44:20.350Z,0.00
2018-09-25T01:45:20.270Z,0.00
2018-09-25T01:46:20.189Z,0.00
2018-09-25T01:47:20.105Z,0.00
2018-09-25T01:48:20.039Z,0.00
2018-09-25T01:49:19.942Z,0.00
2018-09-25T01:50:19.863Z,0.00
2018-09-25T01:51:19.778Z,0.00
2018-09-25T01:52:19.699Z,0.00
2018-09-25T01:53:19.629Z,0.00
2018-09-25T01:54:19.532Z,0.00
2018-09-25T01:55:19.452Z,0.00
2018-09-25T01:56:19.369Z,0.00
2018-09-25T01:57:19.291Z,0.00
2018-09-25T01:58:19.210Z,0.00
2018-09-25T01:59:19.126Z,0.00
2018-09-25T02:00:19.042Z,0.00
2018-09-25T02:01:18.965Z,0.00
2018-09-25T02:02:18.884Z,0.00
2018-09-25T02:03:18.799Z,0.00
2018-09-25T02:04:18.715Z,0.00
2018-09-25T02:05:18.634Z,0.00
2018-09-25T02:06:18.556Z,0.00
2018-09-25T02:07:18.474Z,0.00
2018-09-25T02:08:18.395Z,0.00
2018-09-25T02:09:18.310Z,0.00
2018-09-25T02:10:18.239Z,0.00
2018-09-25T02:11:18.144Z,0.00
2018-09-25T02:12:18.068Z,0.00
2018-09-25T02:13:17.983Z,0.00
2018-09-25T02:14:17.900Z,0.00
2018-09-25T02:15:17.816Z,0.00
2018-09-25T02:16:17.735Z,0.00
2018-09-25T02:17:17.658Z,0.00
2018-09-25T02:18:17.579Z,0.00
2018-09-25T02:19:17.491Z,0.00
2018-09-25T02:20:17.409Z,0.00
2018-09-25T02:21:17.330Z,0.00
2018-09-25T02:22:17.253Z,0.00
2018-09-25T02:23:17.162Z,0.00
2018-09-25T02:24:17.082Z,0.00
2018-09-25T02:25:17.002Z,0.00
2018-09-25T02:26:16.920Z,0.00
2018-09-25T02:27:16.836Z,0.00
2018-09-25T02:28:16.757Z,0.00
2018-09-25T02:29:16.674Z,0.00
2018-09-25T02:30:16.594Z,0.00
2018-09-25T02:31:16.510Z,0.00
2018-09-25T02:32:16.434Z,0.00
2018-09-25T02:33:16.347Z,0.00
2018-09-25T02:34:16.268Z,0.00
2018-09-25T02:35:16.181Z,0.00
2018-09-25T02:36:16.104Z,0.00
2018-09-25T02:37:16.026Z,0.00
2018-09-25T02:38:15.940Z,0.00
2018-09-25T02:39:15.859Z,0.00
2018-09-25T02:40:15.776Z,0.00
2018-09-25T02:41:15.695Z,0.00
2018-09-25T02:42:15.612Z,0.00
2018-09-25T02:43:15.531Z,0.00
2018-09-25T02:44:15.448Z,0.00
2018-09-25T02:45:15.368Z,0.00
2018-09-25T02:46:15.284Z,0.00
2018-09-25T02:47:15.210Z,0.00
2018-09-25T02:48:15.121Z,0.00
2018-09-25T02:49:15.041Z,0.00
2018-09-25T02:50:14.963Z,0.00
2018-09-25T02:51:14.877Z,0.00
2018-09-25T02:52:14.795Z,0.00
2018-09-25T02:53:14.713Z,0.00
2018-09-25T02:54:14.645Z,0.00
2018-09-25T02:55:14.549Z,0.00
2018-09-25T02:56:14.469Z,0.00
2018-09-25T02:57:14.385Z,0.00
2018-09-25T02:58:14.304Z,0.00
2018-09-25T02:59:14.225Z,0.00
2018-09-25T03:00:14.144Z,0.00
2018-09-25T03:01:14.061Z,0.00
2018-09-25T03:02:13.979Z,0.00
2018-09-25T03:03:13.896Z,0.00
2018-09-25T03:04:13.812Z,0.00
2018-09-25T03:05:13.734Z,0.00
2018-09-25T03:06:13.653Z,0.00
2018-09-25T03:07:13.570Z,0.00
2018-09-25T03:08:13.486Z,0.00
2018-09-25T03:09:13.405Z,0.00
2018-09-25T03:10:13.324Z,0.00
2018-09-25T03:11:13.242Z,0.00
2018-09-25T03:12:13.157Z,0.00
2018-09-25T03:13:13.078Z,0.00
2018-09-25T03:14:13.001Z,0.00
2018-09-25T03:15:12.985Z,0.00
2018-09-25T03:16:12.841Z,0.00
2018-09-25T03:17:12.752Z,0.00
2018-09-25T03:18:12.669Z,0.00
2018-09-25T03:19:12.622Z,0.00
2018-09-25T03:20:12.507Z,0.00
2018-09-25T03:21:12.429Z,0.00
2018-09-25T03:22:12.349Z,0.00
2018-09-25T03:23:12.273Z,0.00
2018-09-25T03:24:12.178Z,0.00
2018-09-25T03:25:12.098Z,0.00
2018-09-25T03:26:12.016Z,0.00
2018-09-25T03:27:11.934Z,0.00
2018-09-25T03:28:11.854Z,0.00
2018-09-25T03:29:11.769Z,0.00
2018-09-25T03:30:11.690Z,0.00
2018-09-25T03:31:11.611Z,0.00
2018-09-25T03:33:43.566Z,0.00
2018-09-25T03:34:43.438Z,0.00
2018-09-25T03:36:47.788Z,0.00
2018-09-25T03:37:47.657Z,0.00
2018-09-25T03:39:51.954Z,0.00
2018-09-25T03:40:51.861Z,0.00
2018-09-25T03:42:56.205Z,0.00
2018-09-25T03:43:56.086Z,0.00
2018-09-25T03:46:00.371Z,0.00
2018-09-25T03:47:00.282Z,0.00
2018-09-25T03:49:04.627Z,0.00
2018-09-25T03:50:04.494Z,0.00
2018-09-25T03:52:08.838Z,0.00
2018-09-25T03:53:08.706Z,0.00
2018-09-25T03:55:13.021Z,0.00
2018-09-25T03:56:12.923Z,0.00
2018-09-25T03:58:18.273Z,0.00
2018-09-25T03:59:18.144Z,0.00
2018-09-25T04:01:22.443Z,0.00
2018-09-25T04:02:22.353Z,0.00
2018-09-25T04:04:26.686Z,0.00
2018-09-25T04:05:26.556Z,0.00
2018-09-25T04:07:30.892Z,0.00
2018-09-25T04:08:30.756Z,0.00
2018-09-25T04:10:35.043Z,0.00
2018-09-25T04:11:34.961Z,0.00
2018-09-25T04:13:28.244Z,0.00
2018-09-25T04:14:28.110Z,0.00
2018-09-25T04:16:32.408Z,0.00
2018-09-25T04:17:32.322Z,0.00
2018-09-25T04:18:32.240Z,0.00
2018-09-25T04:19:32.170Z,0.00
2018-09-25T04:20:32.079Z,0.00
2018-09-25T04:21:32.006Z,0.00
2018-09-25T04:22:31.913Z,0.00
2018-09-25T04:23:31.836Z,0.00
2018-09-25T04:24:31.762Z,0.00
2018-09-25T04:25:31.669Z,0.00
2018-09-25T04:26:31.584Z,0.00
2018-09-25T04:27:31.502Z,0.00
2018-09-25T04:28:31.545Z,0.00
2018-09-25T04:29:31.345Z,0.00
2018-09-25T04:30:31.256Z,0.00
2018-09-25T04:31:31.175Z,0.00
2018-09-25T04:32:31.095Z,0.00
2018-09-25T04:33:31.016Z,0.00
2018-09-25T04:34:30.926Z,0.00
2018-09-25T04:35:30.847Z,0.00
2018-09-25T04:36:30.767Z,0.00
2018-09-25T04:37:30.691Z,0.00
2018-09-25T04:38:30.601Z,0.00
2018-09-25T04:39:30.520Z,0.00
2018-09-25T04:40:30.443Z,0.00
2018-09-25T04:41:30.357Z,0.00
2018-09-25T04:42:30.283Z,0.00
2018-09-25T04:43:30.194Z,0.00
2018-09-25T04:44:30.112Z,0.00
2018-09-25T04:45:30.030Z,0.00
2018-09-25T04:46:29.946Z,0.00
2018-09-25T04:47:29.868Z,0.00
2018-09-25T04:48:29.780Z,0.00
2018-09-25T04:49:29.698Z,0.00
2018-09-25T04:50:29.617Z,0.00
2018-09-25T04:51:29.536Z,0.00
2018-09-25T04:52:29.463Z,0.00
2018-09-25T04:53:29.377Z,0.00
2018-09-25T04:54:29.288Z,0.00
2018-09-25T04:55:29.208Z,0.00
2018-09-25T04:56:29.125Z,5.63
2018-09-25T04:57:29.040Z,5.63
2018-09-25T04:58:28.958Z,5.63
2018-09-25T04:59:28.879Z,5.63
2018-09-25T05:00:28.802Z,5.63
2018-09-25T05:01:28.712Z,5.63
2018-09-25T05:02:28.630Z,11.25
2018-09-25T05:03:28.554Z,11.25
2018-09-25T05:04:28.470Z,11.25
2018-09-25T05:05:28.387Z,11.25
2018-09-25T05:06:28.344Z,11.25
2018-09-25T05:07:28.225Z,16.88
2018-09-25T05:08:28.141Z,16.88
2018-09-25T05:09:28.057Z,16.88
2018-09-25T05:10:27.979Z,16.88
2018-09-25T05:11:27.897Z,22.50
2018-09-25T05:12:27.811Z,22.50
2018-09-25T05:13:27.727Z,22.50
2018-09-25T05:14:27.648Z,22.50
2018-09-25T05:15:27.563Z,28.13
2018-09-25T05:16:27.480Z,28.13
2018-09-25T05:17:27.397Z,28.13
2018-09-25T05:18:27.318Z,33.75
2018-09-25T05:19:27.236Z,33.75
2018-09-25T05:20:27.152Z,33.75
2018-09-25T05:21:27.073Z,39.38
2018-09-25T05:22:26.992Z,39.38
2018-09-25T05:23:26.943Z,39.38
2018-09-25T05:24:26.821Z,39.38
2018-09-25T05:25:26.742Z,45.00
2018-09-25T05:26:26.665Z,45.00
2018-09-25T05:27:26.576Z,45.00
2018-09-25T05:28:26.493Z,50.63
2018-09-25T05:29:26.408Z,50.63
2018-09-25T05:30:26.330Z,50.63
2018-09-25T05:31:26.251Z,50.63
2018-09-25T05:32:26.178Z,56.25
2018-09-25T05:33:26.085Z,56.25
2018-09-25T05:34:26.007Z,56.25
2018-09-25T05:35:25.915Z,56.25
2018-09-25T05:36:25.835Z,61.88
2018-09-25T05:37:25.762Z,61.88
2018-09-25T05:38:25.668Z,61.88
2018-09-25T05:39:25.590Z,67.50
2018-09-25T05:40:25.520Z,67.50
2018-09-25T05:41:25.435Z,67.50
2018-09-25T05:42:25.340Z,67.50
2018-09-25T05:43:25.262Z,73.13
2018-09-25T05:44:25.176Z,73.13
2018-09-25T05:45:25.096Z,73.13
2018-09-25T05:46:25.012Z,73.13
2018-09-25T05:47:24.931Z,78.75
2018-09-25T05:48:24.890Z,78.75
2018-09-25T05:49:24.766Z,78.75
2018-09-25T05:50:24.686Z,78.75
2018-09-25T05:51:24.606Z,84.38
2018-09-25T05:52:24.518Z,84.38
2018-09-25T05:53:24.439Z,84.38
2018-09-25T05:54:24.358Z,84.38
2018-09-25T05:55:24.282Z,84.38
2018-09-25T05:56:24.193Z,90.00
2018-09-25T05:57:24.110Z,90.00
2018-09-25T05:58:24.023Z,90.00
2018-09-25T05:59:23.943Z,90.00
2018-09-25T06:00:23.862Z,95.63
2018-09-25T06:01:23.780Z,95.63
2018-09-25T06:02:23.700Z,95.63
2018-09-25T06:03:23.617Z,95.63
2018-09-25T06:04:23.539Z,95.63
2018-09-25T06:05:23.451Z,101.25
2018-09-25T06:06:23.369Z,101.25
2018-09-25T06:07:23.299Z,101.25
2018-09-25T06:08:23.210Z,101.25
2018-09-25T06:09:23.158Z,106.88
2018-09-25T06:10:23.045Z,106.88
2018-09-25T06:11:22.963Z,106.88
2018-09-25T06:12:22.884Z,106.88
2018-09-25T06:13:22.811Z,106.88
2018-09-25T06:14:22.719Z,112.50
2018-09-25T06:15:22.630Z,112.50
2018-09-25T06:16:22.549Z,112.50
2018-09-25T06:17:22.465Z,112.50
2018-09-25T06:18:22.385Z,112.50
2018-09-25T06:19:22.301Z,112.50
2018-09-25T06:20:22.225Z,118.13
2018-09-25T06:21:22.137Z,118.13
2018-09-25T06:22:22.056Z,118.13
2018-09-25T06:23:21.999Z,118.13
2018-09-25T06:24:21.896Z,118.13
2018-09-25T06:25:21.809Z,118.13
2018-09-25T06:26:21.727Z,118.13
2018-09-25T06:27:21.649Z,118.13
2018-09-25T06:28:21.571Z,123.75
2018-09-25T06:29:21.481Z,123.75
2018-09-25T06:30:21.406Z,123.75
2018-09-25T06:31:21.323Z,123.75
2018-09-25T06:32:21.237Z,123.75
2018-09-25T06:33:21.158Z,123.75
2018-09-25T06:34:21.080Z,123.75
2018-09-25T06:35:20.997Z,123.75
2018-09-25T06:36:20.912Z,129.38
2018-09-25T06:37:20.844Z,129.38
2018-09-25T06:38:20.747Z,129.38
2018-09-25T06:39:20.672Z,129.38
2018-09-25T06:40:20.589Z,129.38
2018-09-25T06:41:20.504Z,129.38
2018-09-25T06:42:20.432Z,129.38
2018-09-25T06:43:20.338Z,129.38
2018-09-25T06:44:20.256Z,129.38
2018-09-25T06:45:20.176Z,129.38
2018-09-25T06:46:20.131Z,129.38
2018-09-25T06:47:20.039Z,129.38
2018-09-25T06:48:19.932Z,135.00
2018-09-25T06:49:19.849Z,135.00
2018-09-25T06:50:19.772Z,135.00
2018-09-25T06:51:19.684Z,135.00
2018-09-25T06:52:19.605Z,135.00
2018-09-25T06:53:19.519Z,135.00
2018-09-25T06:54:19.440Z,135.00
2018-09-25T06:55:19.476Z,135.00
2018-09-25T06:56:19.273Z,135.00
2018-09-25T06:57:19.191Z,135.00
2018-09-25T06:58:19.114Z,135.00
2018-09-25T06:59:19.029Z,135.00
2018-09-25T07:00:18.947Z,135.00
2018-09-25T07:01:18.866Z,135.00
2018-09-25T07:02:18.806Z,135.00
2018-09-25T07:03:18.706Z,140.63
2018-09-25T07:04:18.624Z,140.63
2018-09-25T07:05:18.545Z,140.63
2018-09-25T07:06:18.459Z,140.63
2018-09-25T07:07:18.378Z,140.63
2018-09-25T07:08:18.297Z,140.63
2018-09-25T07:09:18.215Z,140.63
2018-09-25T07:10:18.229Z,140.63
2018-09-25T07:11:18.051Z,140.63
2018-09-25T07:12:17.991Z,140.63
2018-09-25T07:13:17.887Z,140.63
2018-09-25T07:14:17.809Z,140.63
2018-09-25T07:15:17.725Z,140.63
2018-09-25T07:16:17.644Z,140.63
2018-09-25T07:17:17.562Z,140.63
2018-09-25T07:18:17.481Z,140.63
2018-09-25T07:19:17.399Z,140.63
2018-09-25T07:20:17.328Z,146.25
2018-09-25T07:21:17.236Z,146.25
2018-09-25T07:22:17.154Z,146.25
2018-09-25T07:23:17.072Z,146.25
2018-09-25T07:24:16.992Z,146.25
2018-09-25T07:25:16.914Z,146.25
2018-09-25T07:26:16.829Z,146.25
2018-09-25T07:27:16.749Z,146.25
2018-09-25T07:28:16.668Z,146.25
2018-09-25T07:29:16.588Z,146.25
2018-09-25T07:30:16.505Z,146.25
2018-09-25T07:31:16.423Z,146.25
2018-09-25T07:32:16.347Z,146.25
2018-09-25T07:33:16.260Z,146.25
2018-09-25T07:34:16.184Z,146.25
2018-09-25T07:35:16.101Z,140.63
2018-09-25T07:36:16.023Z,140.63
2018-09-25T07:37:15.936Z,146.25
2018-09-25T07:38:15.852Z,146.25
2018-09-25T07:39:15.774Z,146.25
2018-09-25T07:40:15.694Z,146.25
2018-09-25T07:41:15.619Z,146.25
2018-09-25T07:42:15.535Z,135.00
2018-09-25T07:43:15.451Z,146.25
2018-09-25T07:44:15.370Z,146.25
2018-09-25T07:45:15.288Z,146.25
2018-09-25T07:46:15.211Z,146.25
2018-09-25T07:47:15.128Z,146.25
2018-09-25T07:48:15.162Z,146.25
2018-09-25T07:49:14.967Z,151.88
2018-09-25T07:50:14.890Z,151.88
2018-09-25T07:51:14.805Z,151.88
2018-09-25T07:52:14.724Z,151.88
2018-09-25T07:53:14.641Z,151.88
2018-09-25T07:54:14.562Z,151.88
2018-09-25T07:55:14.480Z,151.88
2018-09-25T07:56:14.402Z,151.88
2018-09-25T07:57:14.321Z,151.88
2018-09-25T07:58:14.239Z,157.50
2018-09-25T07:59:14.157Z,157.50
2018-09-25T08:00:14.084Z,157.50
2018-09-25T08:01:14.000Z,157.50
2018-09-25T08:02:13.917Z,157.50
2018-09-25T08:03:13.845Z,157.50
2018-09-25T08:04:13.753Z,157.50
2018-09-25T08:05:13.674Z,157.50
2018-09-25T08:06:13.592Z,163.13
2018-09-25T08:07:13.513Z,163.13
2018-09-25T08:08:13.433Z,163.13
2018-09-25T08:09:13.357Z,163.13
2018-09-25T08:10:13.269Z,163.13
2018-09-25T08:11:13.192Z,163.13
2018-09-25T08:12:13.110Z,163.13
2018-09-25T08:13:13.027Z,163.13
2018-09-25T08:14:12.949Z,163.13
2018-09-25T08:15:12.868Z,163.13
2018-09-25T08:16:12.794Z,163.13
2018-09-25T08:17:12.705Z,163.13
2018-09-25T08:18:12.623Z,163.13
2018-09-25T08:19:12.545Z,163.13
2018-09-25T08:20:12.464Z,163.13
2018-09-25T08:21:12.388Z,168.75
2018-09-25T08:22:12.304Z,168.75
2018-09-25T08:23:12.239Z,174.38
2018-09-25T08:24:12.140Z,191.25
2018-09-25T08:25:12.063Z,180.00
2018-09-25T08:26:11.981Z,168.75
2018-09-25T08:27:11.899Z,168.75
2018-09-25T08:28:11.822Z,168.75
2018-09-25T08:29:11.740Z,168.75
2018-09-25T08:30:11.661Z,163.13
2018-09-25T08:31:11.589Z,168.75
2018-09-25T08:32:11.499Z,174.38
2018-09-25T08:33:11.419Z,185.63
2018-09-25T08:34:11.350Z,191.25
2018-09-25T08:35:11.264Z,213.75
2018-09-25T08:36:11.177Z,236.25
2018-09-25T08:37:11.100Z,236.25
2018-09-25T08:38:11.022Z,230.63
2018-09-25T08:39:10.958Z,225.00
2018-09-25T08:40:10.860Z,236.25
2018-09-25T08:41:10.984Z,253.13
2018-09-25T08:42:10.695Z,253.13
2018-09-25T08:43:10.640Z,253.13
2018-09-25T08:44:10.535Z,247.50
2018-09-25T08:45:10.458Z,247.50
2018-09-25T08:46:10.381Z,241.88
2018-09-25T08:47:10.293Z,230.63
2018-09-25T08:48:10.228Z,230.63
2018-09-25T08:49:10.134Z,253.13
2018-09-25T08:50:10.059Z,298.13
2018-09-25T08:51:09.973Z,326.25
2018-09-25T08:52:09.895Z,315.00
2018-09-25T08:53:09.814Z,303.75
2018-09-25T08:54:09.734Z,303.75
2018-09-25T08:55:09.657Z,309.38
2018-09-25T08:56:09.587Z,326.25
2018-09-25T08:57:09.501Z,326.25
2018-09-25T08:58:09.418Z,331.88
2018-09-25T08:59:09.336Z,337.50
2018-09-25T09:00:09.260Z,331.88
2018-09-25T09:01:09.178Z,309.38
2018-09-25T09:02:09.096Z,275.63
2018-09-25T09:03:09.020Z,264.38
2018-09-25T09:04:08.938Z,258.75
2018-09-25T09:05:08.870Z,292.50
2018-09-25T09:06:08.785Z,320.63
2018-09-25T09:07:08.713Z,320.63
2018-09-25T09:08:08.625Z,360.00
2018-09-25T09:09:08.543Z,376.88
2018-09-25T09:10:08.461Z,371.25
2018-09-25T09:11:08.384Z,365.63
2018-09-25T09:12:08.309Z,343.13
2018-09-25T09:13:08.225Z,343.13
2018-09-25T09:14:08.147Z,354.38
2018-09-25T09:15:08.068Z,388.13
2018-09-25T09:16:07.993Z,399.38
2018-09-25T09:17:07.908Z,388.13
2018-09-25T09:18:07.907Z,354.38
2018-09-25T09:19:07.752Z,343.13
2018-09-25T09:20:07.755Z,320.63
2018-09-25T09:21:07.595Z,309.38
2018-09-25T09:22:07.520Z,292.50
2018-09-25T09:23:07.433Z,281.25
2018-09-25T09:24:07.358Z,270.00
2018-09-25T09:25:07.303Z,264.38
2018-09-25T09:26:07.206Z,258.75
2018-09-25T09:27:07.122Z,247.50
2018-09-25T09:28:07.040Z,241.88
2018-09-25T09:29:06.963Z,247.50
2018-09-25T09:30:06.894Z,247.50
2018-09-25T09:31:06.803Z,253.13
2018-09-25T09:32:06.725Z,264.38
2018-09-25T09:33:06.648Z,275.63
2018-09-25T09:34:06.569Z,270.00
2018-09-25T09:35:06.487Z,275.63
2018-09-25T09:36:06.408Z,292.50
2018-09-25T09:37:13.675Z,331.88
2018-09-25T09:39:10.693Z,382.50
2018-09-25T09:40:10.538Z,382.50
2018-09-25T09:42:14.413Z,365.63
2018-09-25T09:43:14.277Z,354.38
2018-09-25T09:44:14.213Z,343.13
2018-09-25T09:45:14.108Z,337.50
2018-09-25T09:46:14.029Z,326.25
2018-09-25T09:47:13.958Z,337.50
2018-09-25T09:48:13.877Z,343.13
2018-09-25T09:49:13.791Z,303.75
2018-09-25T09:50:13.725Z,337.50
2018-09-25T09:51:13.844Z,354.38
2018-09-25T09:52:13.555Z,337.50
2018-09-25T09:53:13.482Z,331.88
2018-09-25T09:54:13.400Z,326.25
2018-09-25T09:55:13.321Z,326.25
2018-09-25T09:56:13.320Z,376.88
2018-09-25T09:57:13.162Z,354.38
2018-09-25T09:58:13.089Z,376.88
2018-09-25T09:59:13.010Z,416.25
2018-09-25T10:00:12.929Z,461.25
2018-09-25T10:01:12.847Z,466.88
2018-09-25T10:02:12.768Z,472.50
2018-09-25T10:03:12.690Z,483.75
2018-09-25T10:04:12.613Z,483.75
2018-09-25T10:05:12.544Z,495.00
2018-09-25T10:06:12.453Z,455.63
2018-09-25T10:07:12.534Z,472.50
2018-09-25T10:08:12.299Z,483.75
2018-09-25T10:09:12.219Z,472.50
2018-09-25T10:10:12.142Z,506.25
2018-09-25T10:11:12.068Z,466.88
2018-09-25T10:12:11.991Z,416.25
2018-09-25T10:13:11.906Z,376.88
2018-09-25T10:14:11.939Z,371.25
2018-09-25T10:15:11.755Z,455.63
2018-09-25T10:16:11.683Z,478.13
2018-09-25T10:17:11.601Z,478.13
2018-09-25T10:18:11.543Z,438.75
2018-09-25T10:19:11.439Z,416.25
2018-09-25T10:20:11.365Z,410.63
2018-09-25T10:21:11.282Z,393.75
2018-09-25T10:22:11.207Z,371.25
2018-09-25T10:23:11.197Z,393.75
2018-09-25T10:24:11.105Z,427.50
2018-09-25T10:25:10.971Z,427.50
2018-09-25T10:26:10.895Z,405.00
2018-09-25T10:27:10.824Z,399.38
2018-09-25T10:28:10.742Z,382.50
2018-09-25T10:29:10.666Z,393.75
2018-09-25T10:30:10.585Z,405.00
2018-09-25T10:31:10.508Z,410.63
2018-09-25T10:32:10.434Z,450.00
2018-09-25T10:33:10.366Z,450.00
2018-09-25T10:34:10.325Z,461.25
2018-09-25T10:35:10.197Z,331.88
2018-09-25T10:36:10.118Z,444.38
2018-09-25T10:37:10.217Z,427.50
2018-09-25T10:38:09.961Z,427.50
2018-09-25T10:39:09.885Z,433.13
2018-09-25T10:40:09.807Z,438.75
2018-09-25T10:41:09.730Z,427.50
2018-09-25T10:42:09.662Z,427.50
2018-09-25T10:43:09.584Z,438.75
2018-09-25T10:44:09.498Z,438.75
2018-09-25T10:45:09.439Z,450.00
2018-09-25T10:46:09.341Z,478.13
2018-09-25T10:47:09.264Z,399.38
2018-09-25T10:48:09.188Z,343.13
2018-09-25T10:49:09.113Z,2165.63
2018-09-25T10:50:09.054Z,3532.50
2018-09-25T10:51:08.960Z,4477.50
2018-09-25T10:52:08.875Z,810.00
2018-09-25T10:53:08.801Z,2525.63
2018-09-25T10:54:08.727Z,781.88
2018-09-25T10:55:08.650Z,753.75
2018-09-25T10:56:08.705Z,798.75
2018-09-25T10:57:08.503Z,4843.13
2018-09-25T10:58:08.427Z,3650.63
2018-09-25T10:59:08.353Z,793.13
2018-09-25T11:00:08.282Z,4297.50
2018-09-25T11:01:08.212Z,4696.88
2018-09-25T11:02:08.132Z,4736.25
2018-09-25T11:03:08.155Z,4764.38
2018-09-25T11:04:07.993Z,4815.00
2018-09-25T11:05:07.929Z,4837.50
2018-09-25T11:06:07.852Z,4837.50
2018-09-25T11:07:07.786Z,4882.50
2018-09-25T11:08:07.720Z,4950.00
2018-09-25T11:09:07.650Z,5051.25
2018-09-25T11:10:07.593Z,5124.38
2018-09-25T11:11:07.513Z,5197.50
2018-09-25T11:12:07.453Z,5220.00
2018-09-25T11:13:07.378Z,5214.38
2018-09-25T11:14:07.312Z,5146.88
2018-09-25T11:15:07.279Z,5146.88
2018-09-25T11:16:07.184Z,5231.25
2018-09-25T11:17:07.114Z,5265.00
2018-09-25T11:18:07.061Z,5208.75
2018-09-25T11:19:06.985Z,5248.13
2018-09-25T11:20:06.920Z,5371.88
2018-09-25T11:21:06.857Z,5248.13
2018-09-25T11:22:06.796Z,5287.50
2018-09-25T11:23:06.731Z,5428.13
2018-09-25T11:24:06.668Z,5540.63
2018-09-25T11:25:06.606Z,5619.38
2018-09-25T11:26:06.538Z,646.88
2018-09-25T11:27:06.525Z,4860.00
2018-09-25T11:28:06.421Z,4944.38
2018-09-25T11:29:06.351Z,641.25
2018-09-25T11:30:06.358Z,540.00
2018-09-25T11:31:06.223Z,511.88
2018-09-25T11:32:06.165Z,511.88
2018-09-25T11:33:06.092Z,506.25
2018-09-25T11:34:06.029Z,405.00
2018-09-25T11:35:05.964Z,405.00
2018-09-25T11:36:05.964Z,641.25
2018-09-25T11:37:05.829Z,2829.38
2018-09-25T11:38:05.764Z,545.63
2018-09-25T11:39:05.702Z,2677.50
2018-09-25T11:40:05.629Z,5360.63
2018-09-25T11:41:05.563Z,5293.13
2018-09-25T11:42:05.498Z,5332.50
2018-09-25T11:43:05.426Z,5377.50
2018-09-25T11:44:05.360Z,5439.38
2018-09-25T11:45:05.469Z,5461.88
2018-09-25T11:46:05.285Z,5518.13
2018-09-25T11:47:05.289Z,5630.63
2018-09-25T11:48:05.100Z,5731.88
2018-09-25T11:49:05.030Z,5844.38
2018-09-25T11:50:04.965Z,5900.63
2018-09-25T11:51:04.902Z,5979.38
2018-09-25T11:52:04.841Z,3493.13
2018-09-25T11:53:04.781Z,765.00
2018-09-25T11:54:04.714Z,646.88
2018-09-25T11:55:04.650Z,686.25
2018-09-25T11:56:04.592Z,776.25
2018-09-25T11:57:04.609Z,1198.13
2018-09-25T11:58:04.467Z,714.38
2018-09-25T11:59:04.403Z,748.13
2018-09-25T12:00:04.334Z,753.75
2018-09-25T12:01:04.272Z,2469.38
2018-09-25T12:02:04.259Z,6705.00
2018-09-25T12:03:04.140Z,6744.38
2018-09-25T12:04:04.078Z,5613.75
2018-09-25T12:05:04.014Z,455.63
2018-09-25T12:06:03.943Z,393.75
2018-09-25T12:07:03.885Z,393.75
2018-09-25T12:08:03.812Z,393.75
2018-09-25T12:09:03.744Z,427.50
2018-09-25T12:10:03.679Z,6345.00
2018-09-25T12:11:03.612Z,6373.13
2018-09-25T12:12:03.548Z,6367.50
2018-09-25T12:13:03.481Z,6423.75
2018-09-25T12:14:03.416Z,6463.13
2018-09-25T12:15:03.348Z,6480.00
2018-09-25T12:16:03.364Z,6519.38
2018-09-25T12:17:03.219Z,6536.25
2018-09-25T12:18:03.159Z,6496.88
2018-09-25T12:19:03.095Z,6418.13
2018-09-25T12:20:03.111Z,6142.50
2018-09-25T12:21:02.967Z,5990.63
2018-09-25T12:22:02.905Z,5850.00
2018-09-25T12:23:02.848Z,5805.00
2018-09-25T12:24:02.784Z,5821.88
2018-09-25T12:25:02.723Z,6080.63
2018-09-25T12:26:02.663Z,5810.63
2018-09-25T12:27:02.613Z,6238.13
2018-09-25T12:28:02.550Z,5799.38
2018-09-25T12:29:02.487Z,4010.63
2018-09-25T12:30:02.428Z,5591.25
2018-09-25T12:31:02.371Z,5574.38
2018-09-25T12:32:02.313Z,5782.50
2018-09-25T12:33:02.315Z,6159.38
2018-09-25T12:34:02.206Z,6699.38
2018-09-25T12:35:02.144Z,6772.50
2018-09-25T12:36:02.080Z,6564.38
2018-09-25T12:37:02.022Z,6508.13
2018-09-25T12:38:01.970Z,6457.50
2018-09-25T12:39:01.911Z,6238.13
2018-09-25T12:40:01.861Z,6069.38
2018-09-25T12:41:01.883Z,6249.38
2018-09-25T12:42:01.756Z,6502.50
2018-09-25T12:43:01.696Z,6851.25
2018-09-25T12:44:01.637Z,6997.50
2018-09-25T12:45:01.587Z,7194.38
2018-09-25T12:46:01.516Z,7228.13
2018-09-25T12:47:01.463Z,6946.88
2018-09-25T12:48:01.408Z,6519.38
2018-09-25T12:49:01.350Z,6615.00
2018-09-25T12:50:01.321Z,6457.50
2018-09-25T12:51:01.242Z,6468.75
2018-09-25T12:52:01.185Z,6862.50
2018-09-25T12:53:01.131Z,7087.50
2018-09-25T12:54:01.073Z,7211.25
2018-09-25T12:55:01.017Z,1220.63
2018-09-25T12:56:00.968Z,4010.63
2018-09-25T12:57:00.908Z,5878.13
2018-09-25T12:58:00.850Z,7261.88
2018-09-25T12:59:00.794Z,7245.00
2018-09-25T13:00:00.737Z,6890.63
2018-09-25T13:01:00.683Z,6530.63
2018-09-25T13:02:00.633Z,6238.13